createdAt,value
2023-04-08T00:03:24.733Z,66
2023-04-08T00:08:32.599Z,66
2023-04-08T00:13:40.552Z,66
2023-04-08T00:18:48.643Z,66
2023-04-08T00:23:56.480Z,66
2023-04-08T00:29:04.432Z,66
2023-04-08T00:34:12.378Z,66
2023-04-08T00:39:20.342Z,66
2023-04-08T00:44:28.285Z,66
2023-04-08T00:49:36.223Z,66.5
2023-04-08T00:54:44.206Z,66
2023-04-08T00:59:52.133Z,66
2023-04-08T01:05:00.336Z,66
2023-04-08T01:10:08.041Z,66
2023-04-08T01:15:16.054Z,66
2023-04-08T01:20:23.977Z,66
2023-04-08T01:25:31.895Z,66
2023-04-08T01:30:39.877Z,66
2023-04-08T01:35:47.890Z,66
2023-04-08T01:40:55.795Z,66
2023-04-08T01:46:03.750Z,66
2023-04-08T01:51:11.689Z,66
2023-04-08T01:56:19.650Z,66
2023-04-08T02:01:27.605Z,66
2023-04-08T02:06:35.535Z,66
2023-04-08T02:16:51.452Z,66
2023-04-08T02:21:59.414Z,66.5
2023-04-08T02:27:07.354Z,66
2023-04-08T02:32:15.379Z,66.5
2023-04-08T02:37:23.269Z,66.5
2023-04-08T02:42:31.233Z,67
2023-04-08T02:47:39.234Z,66.5
2023-04-08T02:52:47.150Z,66.5
2023-04-08T02:57:55.114Z,66.5
2023-04-08T03:03:03.277Z,66.5
2023-04-08T03:08:10.992Z,66.5
2023-04-08T03:13:18.964Z,66.5
2023-04-08T03:18:26.899Z,66.5
2023-04-08T03:23:34.848Z,66.5
2023-04-08T03:28:42.850Z,66.5
2023-04-08T03:33:50.755Z,66.5
2023-04-08T03:38:58.739Z,66.5
2023-04-08T03:44:06.662Z,66.5
2023-04-08T03:49:14.644Z,66.5
2023-04-08T03:54:22.608Z,66.5
2023-04-08T03:59:30.527Z,66.5
2023-04-08T04:04:38.547Z,66
2023-04-08T04:09:46.450Z,66
2023-04-08T04:14:54.406Z,66
2023-04-08T04:20:02.378Z,66
2023-04-08T04:25:10.297Z,66
2023-04-08T04:30:18.275Z,66
2023-04-08T04:35:26.225Z,66
2023-04-08T04:40:34.194Z,66
2023-04-08T04:45:42.146Z,66
2023-04-08T04:50:50.080Z,66
2023-04-08T04:55:58.050Z,66
2023-04-08T05:01:06.053Z,66
2023-04-08T05:11:18.451Z,66
2023-04-08T05:16:24.642Z,66
2023-04-08T05:21:30.747Z,66
2023-04-08T05:26:38.701Z,66
2023-04-08T05:31:44.963Z,66
2023-04-08T05:36:51.061Z,66
2023-04-08T05:41:59.020Z,66
2023-04-08T05:47:05.266Z,66
2023-04-08T05:52:13.154Z,66
2023-04-08T05:57:19.314Z,66
2023-04-08T06:02:27.372Z,66
2023-04-08T06:07:35.253Z,66
2023-04-08T06:12:43.177Z,66
2023-04-08T06:17:49.358Z,66
2023-04-08T06:22:57.286Z,66
2023-04-08T06:28:03.459Z,66
2023-04-08T06:33:11.428Z,66
2023-04-08T06:38:17.584Z,66
2023-04-08T06:43:23.751Z,66
2023-04-08T06:48:29.949Z,66
2023-04-08T06:53:37.889Z,66.5
2023-04-08T06:58:44.061Z,66.5
2023-04-08T07:03:52.153Z,66.5
2023-04-08T07:08:58.198Z,66.5
2023-04-08T07:14:04.389Z,67
2023-04-08T07:19:12.357Z,67
2023-04-08T07:24:18.506Z,66.5
2023-04-08T07:34:32.639Z,66.5
2023-04-08T07:39:38.774Z,67
2023-04-08T07:44:46.733Z,67
2023-04-08T07:49:54.724Z,67
2023-04-08T07:55:02.665Z,67
2023-04-08T08:00:08.845Z,67
2023-04-08T08:05:15.087Z,67
2023-04-08T08:10:22.983Z,67
2023-04-08T08:15:29.148Z,67
2023-04-08T08:20:35.311Z,67
2023-04-08T08:25:43.275Z,67
2023-04-08T08:30:51.262Z,67
2023-04-08T08:35:59.278Z,67
2023-04-08T08:41:07.155Z,67
2023-04-08T08:46:13.338Z,67.5
2023-04-08T08:51:19.482Z,67.5
2023-04-08T08:56:27.506Z,67.5
2023-04-08T09:01:33.820Z,67.5
2023-04-08T09:06:39.766Z,67.5
2023-04-08T09:11:46.066Z,67.5
2023-04-08T09:16:54.004Z,67.5
2023-04-08T09:22:00.147Z,67.5
2023-04-08T09:27:08.302Z,67.5
2023-04-08T09:32:14.223Z,67.5
2023-04-08T09:37:20.379Z,67.5
2023-04-08T09:42:28.375Z,68
2023-04-08T09:47:34.602Z,68
2023-04-08T09:52:40.669Z,68
2023-04-08T09:57:48.622Z,68
2023-04-08T10:02:54.882Z,68.5
2023-04-08T10:08:02.773Z,68
2023-04-08T10:13:08.915Z,68
2023-04-08T10:18:15.099Z,68
2023-04-08T10:23:23.077Z,68
2023-04-08T10:28:29.232Z,68
2023-04-08T10:33:37.211Z,68
2023-04-08T10:38:43.377Z,68
2023-04-08T10:43:49.680Z,68
2023-04-08T10:48:55.698Z,68
2023-04-08T10:54:03.669Z,68
2023-04-08T10:59:09.834Z,68.5
2023-04-08T11:04:17.858Z,68
2023-04-08T11:09:23.955Z,68.5
2023-04-08T11:14:30.144Z,68.5
2023-04-08T11:19:36.299Z,68.5
2023-04-08T11:24:44.272Z,68.5
2023-04-08T11:29:50.419Z,68.5
2023-04-08T11:34:58.380Z,68.5
2023-04-08T11:40:04.542Z,68.5
2023-04-08T11:45:10.725Z,68.5
2023-04-08T11:50:18.684Z,68.5
2023-04-08T11:55:24.865Z,68.5
2023-04-08T12:00:31.023Z,68.5
2023-04-08T12:05:39.043Z,68.5
2023-04-08T12:10:45.154Z,68.5
2023-04-08T12:15:51.351Z,68.5
2023-04-08T12:20:59.298Z,68.5
2023-04-08T12:26:07.226Z,68.5
2023-04-08T12:36:19.697Z,68.5
2023-04-08T12:41:27.522Z,68.5
2023-04-08T12:46:33.723Z,68.5
2023-04-08T12:51:39.896Z,68.5
2023-04-08T12:56:46.039Z,68.5
2023-04-08T13:01:52.319Z,68.5
2023-04-08T13:07:00.167Z,68
2023-04-08T13:12:06.583Z,68
2023-04-08T13:17:14.306Z,68
2023-04-08T13:22:20.512Z,68.5
2023-04-08T13:27:26.631Z,68.5
2023-04-08T13:32:32.835Z,68.5
2023-04-08T13:37:38.991Z,68.5
2023-04-08T13:42:45.165Z,68.5
2023-04-08T13:47:51.386Z,68.5
2023-04-08T13:52:59.285Z,68.5
2023-04-08T13:58:08.847Z,68.5
2023-04-08T14:03:13.454Z,68.5
2023-04-08T14:08:19.559Z,68.5
2023-04-08T14:13:25.736Z,68.5
2023-04-08T14:18:33.706Z,69
2023-04-08T14:23:39.870Z,69
2023-04-08T14:28:47.864Z,69
2023-04-08T14:33:54.029Z,69
2023-04-08T14:39:01.945Z,69
2023-04-08T14:44:08.114Z,68.5
2023-04-08T14:49:14.299Z,68.5
2023-04-08T14:54:22.301Z,69
2023-04-08T14:59:28.500Z,69
2023-04-08T15:04:36.402Z,69
2023-04-08T15:09:42.545Z,69
2023-04-08T15:14:48.832Z,69
2023-04-08T15:19:56.650Z,69
2023-04-08T15:25:02.825Z,69
2023-04-08T15:30:12.424Z,69
2023-04-08T15:35:16.968Z,69
2023-04-08T15:40:24.883Z,69
2023-04-08T15:45:31.072Z,69
2023-04-08T15:50:37.302Z,69
2023-04-08T15:55:45.203Z,69
2023-04-08T16:00:51.362Z,69
2023-04-08T16:05:59.317Z,68.5
2023-04-08T16:11:05.500Z,68.5
2023-04-08T16:16:11.675Z,68.5
2023-04-08T16:21:19.600Z,68.5
2023-04-08T16:26:25.800Z,68
2023-04-08T16:31:33.729Z,68
2023-04-08T16:36:39.935Z,68
2023-04-08T16:46:54.049Z,68
2023-04-08T16:52:02.008Z,68
2023-04-08T16:57:08.148Z,67.5
2023-04-08T17:02:14.427Z,67.5
2023-04-08T17:07:22.541Z,67.5
2023-04-08T17:12:28.476Z,67.5
2023-04-08T17:17:34.649Z,67.5
2023-04-08T17:22:42.572Z,67.5
2023-04-08T17:27:48.743Z,67.5
2023-04-08T17:32:56.748Z,67.5
2023-04-08T17:38:02.984Z,67
2023-04-08T17:43:09.037Z,67
2023-04-08T17:48:17.011Z,66.5
2023-04-08T17:53:23.150Z,66.5
2023-04-08T17:58:29.344Z,66.5
2023-04-08T18:03:37.406Z,66.5
2023-04-08T18:08:43.525Z,66.5
2023-04-08T18:13:49.895Z,66.5
2023-04-08T18:18:57.599Z,66.5
2023-04-08T18:24:03.753Z,66
2023-04-08T18:29:11.692Z,66
2023-04-08T18:34:17.890Z,66
2023-04-08T18:39:25.827Z,66
2023-04-08T18:44:33.796Z,65.5
2023-04-08T18:49:39.954Z,65.5
2023-04-08T18:54:47.798Z,65.5
2023-04-08T18:59:52.311Z,65.5
2023-04-08T19:05:00.253Z,65.5
2023-04-08T19:10:08.241Z,65.5
2023-04-08T19:15:16.159Z,65.5
2023-04-08T19:20:22.618Z,65.5
2023-04-08T19:25:28.493Z,65.5
2023-04-08T19:30:36.462Z,65.5
2023-04-08T19:35:42.629Z,65.5
2023-04-08T19:40:50.557Z,65
2023-04-08T19:45:56.740Z,65
2023-04-08T19:51:02.927Z,65
2023-04-08T19:56:10.858Z,65
2023-04-08T20:01:17.047Z,65
2023-04-08T20:06:23.234Z,65
2023-04-08T20:11:31.133Z,65
2023-04-08T20:16:39.131Z,65
2023-04-08T20:21:45.285Z,65
2023-04-08T20:26:53.254Z,65
2023-04-08T20:32:01.195Z,65
2023-04-08T20:37:09.181Z,65
2023-04-08T20:42:15.315Z,65
2023-04-08T20:47:21.497Z,65
2023-04-08T20:52:29.456Z,65
2023-04-08T20:57:35.609Z,65
2023-04-08T21:02:41.958Z,65
2023-04-08T21:07:47.968Z,65
2023-04-08T21:12:54.155Z,65
2023-04-08T21:18:00.372Z,65
2023-04-08T21:23:08.261Z,64.5
2023-04-08T21:28:16.214Z,65
2023-04-08T21:33:24.182Z,65
2023-04-08T21:38:32.157Z,65
2023-04-08T21:43:40.102Z,65
2023-04-08T21:48:48.044Z,65
2023-04-08T21:53:54.285Z,65
2023-04-08T21:59:00.374Z,65
2023-04-08T22:04:08.388Z,65
2023-04-08T22:09:14.500Z,65
2023-04-08T22:14:20.668Z,64.5
2023-04-08T22:19:26.849Z,64.5
2023-04-08T22:24:34.798Z,64.5
2023-04-08T22:29:40.956Z,64.5
2023-04-08T22:34:48.925Z,64.5
2023-04-08T22:39:55.102Z,64.5
2023-04-08T22:45:03.060Z,64.5
2023-04-08T22:50:11.009Z,64.5
2023-04-08T22:55:17.182Z,65
2023-04-08T23:00:23.473Z,64.5
2023-04-08T23:05:29.559Z,64.5
2023-04-08T23:10:37.469Z,64.5
2023-04-08T23:15:43.711Z,64.5
2023-04-08T23:20:49.816Z,64.5
2023-04-08T23:25:57.799Z,65
2023-04-08T23:31:04.011Z,65
2023-04-08T23:36:11.995Z,65
2023-04-08T23:41:18.070Z,65
2023-04-08T23:46:24.337Z,65
2023-04-08T23:51:32.204Z,65
2023-04-08T23:56:38.405Z,65
